RJTJ(METAR)
05/28 02:22
RJTJ 271722Z VRB01KT 9999 FEW010 BKN015 BKN/// 18/15 Q1012 RMK
1SC010 5SC015 A2990=
戻る
トップページへ戻る
IMOC Co,.Ltd.